Aktualne dane pomiarowe

Uwaga, wersja testowa! Automatyczne pobieranie danych za pomocą narzędzi lub skryptów to umożliwiających jest zabronione.

Dane meteo z obszaru Polski uzyskane na podstawie depesz SYNOP pobieranych co godzinę z NWS. Najedź myszką na symbol przedstawiony w tabeli, aby uzyskać informacje co do jego znaczenia. Prosimy pamiętać, że to testowa wersja strony, która jeszcze nie jest ukończona. Stworzono również jest krótki FAQ dotyczący korzystania z tej podstrony Anomalie temperatury w chwili obecnej odniesione są do okresu referencyjnego 1951-2016. Okres ten będzie później zmieniony na 1981-2010. Kliknij ikonę aby pobrać plik CSV. Kliknij ikonę aby wygenerować mapę synoptyczną dla danego terminu.

Wybierz Datę:    

        

Radom (12485)

Dane terminowe dla wybranej stacji. Kliknij datę, aby otrzymać dane z tego terminu dla wszystkich stacji.

TemperaturaZachmurzenieWiatrCiśnienieOpadyPogoda
 Data t td wb tx tn tg rh  Nt Nl Cl Cm Ch ws wd g1 g2 wx mslp ppp ch 24h 12h t ww ww w1 w2  
2019-06-22 23:00:00 17.8 10.9 13.5--- 6410.0wxwxwx2wx---1020.8 999.0 0.7---------
2019-06-22 22:00:00 18.0 10.9 13.6--- 6310.0wxwxwx3wx---1020.6 998.8 0.4---------
2019-06-22 21:00:00 18.3 11.2 13.9--- 6310.0wx-3wx---1020.4 998.6 0.6---------
2019-06-22 20:00:00 19.5 11.0 14.3--- 5810.0wx-2wx---1020.1 998.4 0.3---------
2019-06-22 19:00:00 21.1 11.5 15.2--- 5410.0wx-wx2wx---1019.9 998.4 0.1---------
2019-06-22 18:00:00 22.8 11.9 16.1--- 5010.0wx-wx3wx---1019.4 998.0 -0.2---------
2019-06-22 17:00:00 24.3 11.3 16.5--- 4410.0wxwxwxwx2wx---1019.4 998.1 -0.4---------
2019-06-22 16:00:00 25.1 11.7 17.0--- 4310.0wxwxwxwx2wx---1019.5 998.3 -0.8---------
2019-06-22 15:00:00 25.2 11.4 16.9--- 4210.0wxwxwxwx2wx---1019.4 998.2 -1.3---------
2019-06-22 14:00:00 25.2 12.5 17.4--- 4510.0wxwxwxwx3wx---1019.7 998.5 -1.3---------
2019-06-22 13:00:00 24.6 12.9 17.4--- 4810.0wxwxwxwx3wx---1020.4 999.1 -0.8---------
2019-06-22 12:00:00 24.5 12.8 17.3--- 4810.0wxwxwxwx3wx---1020.8 999.5 -0.2---------
2019-06-22 11:00:00 23.7 13.0 17.1--- 5110.0wxwxwxwx2wx---1021.2 999.8 0.2---------
2019-06-22 10:00:00 22.7 13.8 17.1--- 5710.0wxwxwxwx3wx---1021.4 999.9 0.4---------
2019-06-22 09:00:00 22.0 14.4 17.1--- 6210.0wxwxwxwxwx3wx---1021.2 999.7 0.5---------
2019-06-22 08:00:00 20.8 14.2 16.5--- 6610.0wxwxwxwx2wx---1021.2 999.6 0.9---------
2019-06-22 07:00:00 19.7 15.2 16.7--- 7510.0wxwxwx2wx---1021.2 999.5 1.5---------
2019-06-22 06:00:00 17.9 15.9 16.5--- 888.0wxwxwx2wx---1021.0 999.2 1.8---wx---
2019-06-22 05:00:00 17.5 16.4 16.7--- 938.0wxwxwx2wx---1020.5 998.7 1.9---wx---
2019-06-22 04:00:00 17.6 16.6 16.9--- 948.0wxwxwxwx2wx---1019.8 998.0 1.6---wx---
2019-06-22 03:00:00 17.9 16.9 17.2--- 948.0wxwxwxwx2wx---1019.2 997.4 1.6---wx---
2019-06-22 02:00:00 18.2 17.6 17.8--- 968.0wxwxwxwx2wx---1018.5 996.8 1.4---wx---
2019-06-22 01:00:00 18.3 17.7 17.9--- 968.0wxwxwxwx1wx---1018.1 996.4 1.2---wx---
2019-06-22 00:00:00 18.6 17.6 17.9--- 9410.0wx-wx3wx---1017.6 995.9 0.9---------
2019-06-21 23:00:00 19.0 18.0 18.3--- 9410.0wx-wx3wx---1017.0 995.4 0.1---------
2019-06-21 22:00:00 18.6 17.8 18.0--- 9510.0wx-wx2wx---1016.9 995.2 0.9---------
2019-06-21 21:00:00 18.6 17.6 17.9--- 9410.0wx-wx2wx---1016.7 995.0 1.4---------
2019-06-21 20:00:00 18.6 17.8 18.0--- 9510.0wxwxwxwx1----1017.0 995.3 1.2---------
2019-06-21 19:00:00 18.8 17.8 18.1--- 9410.0wxwxwxwx1----1015.9 994.3 -0.2---------
2019-06-21 18:00:00 18.7 17.2 17.6--- 9110.0wxwxwxwx3wx---1015.2 993.6 1.5---wx-w1w2--
2019-06-21 17:00:00 18.7 17.0 17.5--- 908.0wxwxwxwx3wx---1015.7 994.1 2.5---wx-w1w2--
2019-06-21 16:00:00 20.3 16.7 17.8--- 808.0wxwxwxwx6----1016.1 994.6 3.1---wx-w1w2--
2019-06-21 15:00:00 21.4 17.2 18.5--- 7710.0wxwxwxwx7----1013.5 992.1 0.0---------
2019-06-21 14:00:00 27.2 17.7 20.9--- 5610.0wxwxwxwx4wx---1012.5 991.5 -0.8---------
2019-06-21 13:00:00 27.1 18.2 21.1--- 5810.0wxwxwx1----1012.5 991.5 -1.2---------
2019-06-21 12:00:00 27.6 17.5 20.9--- 5410.0wxwxwxwx3wx---1013.0 992.1 -0.5---------
2019-06-21 11:00:00 26.3 19.2 21.4--- 6510.0wxwxwxwx3wx---1013.4 992.4 0.2---------
2019-06-21 10:00:00 25.4 19.1 21.1--- 6810.0wxwxwxwxwx3wx---1013.8 992.7 0.7---------
2019-06-21 09:00:00 24.7 19.8 21.3--- 7410.0wxwxwxwxwx2wx---1013.8 992.6 0.5---------
2019-06-21 08:00:00 24.2 18.2 20.1--- 6910.0wxwxwxwxwx2wx---1013.4 992.2 0.5---------
2019-06-21 07:00:00 23.1 17.8 19.5--- 7210.0wx-wxwx2wx---1013.3 992.0 0.5---------
2019-06-21 06:00:00 21.9 18.1 19.2--- 7910.0wx-wxwx1----1013.3 992.0 0.9---------
2019-06-21 05:00:00 20.7 17.9 18.7--- 8410.0wx-wxwx1wx---1013.1 991.7 1.2---------
2019-06-21 04:00:00 19.9 18.0 18.5--- 8910.0wx-wxwx2wx---1013.0 991.5 1.0---------
2019-06-21 03:00:00 18.9 17.4 17.8--- 9110.0wx-wxwx3wx---1012.7 991.1 0.9---------
2019-06-21 02:00:00 18.6 16.8 17.3--- 8910.0wx-wx2wx---1012.1 990.5 -0.1---------
2019-06-21 01:00:00 18.9 16.7 17.3--- 8710.0wx-wx1wx---1012.0 990.5 -0.1---------
2019-06-21 00:00:00 20.2 16.3 17.5--- 7810.0wx-wx2wx---1011.6 990.2 -0.1---------
2.1 ms

 

Print Friendly, PDF & Email